sensor_id;sensor_type;location;lat;lon;timestamp;P1;durP1;ratioP1;P2;durP2;ratioP2
72060;SDS011;59925;52.136;5.420;2022-10-22T00:01:55;8.90;;;3.33;;
72060;SDS011;59925;52.136;5.420;2022-10-22T00:04:21;6.25;;;3.83;;
72060;SDS011;59925;52.136;5.420;2022-10-22T00:06:48;8.27;;;3.47;;
72060;SDS011;59925;52.136;5.420;2022-10-22T00:09:14;6.70;;;3.63;;
72060;SDS011;59925;52.136;5.420;2022-10-22T00:11:41;8.35;;;3.38;;
72060;SDS011;59925;52.136;5.420;2022-10-22T00:14:08;6.70;;;3.80;;
72060;SDS011;59925;52.136;5.420;2022-10-22T00:16:34;7.45;;;3.20;;
72060;SDS011;59925;52.136;5.420;2022-10-22T00:19:01;7.63;;;3.70;;
72060;SDS011;59925;52.136;5.420;2022-10-22T00:21:27;7.70;;;3.92;;
72060;SDS011;59925;52.136;5.420;2022-10-22T00:23:55;5.82;;;3.63;;
72060;SDS011;59925;52.136;5.420;2022-10-22T00:26:22;7.03;;;3.73;;
72060;SDS011;59925;52.136;5.420;2022-10-22T00:28:48;7.40;;;3.83;;
72060;SDS011;59925;52.136;5.420;2022-10-22T00:31:14;8.60;;;3.78;;
72060;SDS011;59925;52.136;5.420;2022-10-22T00:33:41;5.13;;;3.42;;
72060;SDS011;59925;52.136;5.420;2022-10-22T00:36:07;5.78;;;3.67;;
72060;SDS011;59925;52.136;5.420;2022-10-22T00:38:34;7.47;;;3.40;;
72060;SDS011;59925;52.136;5.420;2022-10-22T00:41:00;7.95;;;3.67;;
72060;SDS011;59925;52.136;5.420;2022-10-22T00:43:31;7.13;;;3.70;;
72060;SDS011;59925;52.136;5.420;2022-10-22T00:45:58;7.05;;;3.70;;
72060;SDS011;59925;52.136;5.420;2022-10-22T00:48:25;6.82;;;4.00;;
72060;SDS011;59925;52.136;5.420;2022-10-22T00:53:34;7.20;;;3.72;;
72060;SDS011;59925;52.136;5.420;2022-10-22T00:56:03;7.63;;;3.97;;
72060;SDS011;59925;52.136;5.420;2022-10-22T00:58:32;11.38;;;3.85;;
72060;SDS011;59925;52.136;5.420;2022-10-22T01:01:02;5.93;;;3.75;;
72060;SDS011;59925;52.136;5.420;2022-10-22T01:03:30;6.53;;;3.00;;
72060;SDS011;59925;52.136;5.420;2022-10-22T01:05:58;6.47;;;3.38;;
72060;SDS011;59925;52.136;5.420;2022-10-22T01:11:16;7.70;;;3.83;;
72060;SDS011;59925;52.136;5.420;2022-10-22T01:13:56;6.70;;;3.28;;
72060;SDS011;59925;52.136;5.420;2022-10-22T01:16:42;7.03;;;3.47;;
72060;SDS011;59925;52.136;5.420;2022-10-22T01:19:35;6.93;;;3.50;;
72060;SDS011;59925;52.136;5.420;2022-10-22T01:28:06;7.78;;;3.08;;
72060;SDS011;59925;52.136;5.420;2022-10-22T01:30:45;6.83;;;3.30;;
72060;SDS011;59925;52.136;5.420;2022-10-22T01:33:14;11.10;;;3.50;;
72060;SDS011;59925;52.136;5.420;2022-10-22T01:35:46;6.38;;;3.17;;
72060;SDS011;59925;52.136;5.420;2022-10-22T01:38:16;5.72;;;3.53;;
72060;SDS011;59925;52.136;5.420;2022-10-22T01:40:45;8.60;;;3.42;;
72060;SDS011;59925;52.136;5.420;2022-10-22T01:43:13;10.03;;;3.80;;
72060;SDS011;59925;52.136;5.420;2022-10-22T01:45:43;10.15;;;3.30;;
72060;SDS011;59925;52.136;5.420;2022-10-22T01:48:16;6.28;;;3.58;;
72060;SDS011;59925;52.136;5.420;2022-10-22T01:58:57;7.05;;;3.40;;
72060;SDS011;59925;52.136;5.420;2022-10-22T02:01:46;10.98;;;3.20;;
72060;SDS011;59925;52.136;5.420;2022-10-22T02:04:19;9.35;;;3.05;;
72060;SDS011;59925;52.136;5.420;2022-10-22T02:06:50;5.80;;;3.40;;
72060;SDS011;59925;52.136;5.420;2022-10-22T02:09:20;6.80;;;3.13;;
72060;SDS011;59925;52.136;5.420;2022-10-22T02:11:49;9.80;;;3.40;;
72060;SDS011;59925;52.136;5.420;2022-10-22T02:14:16;5.60;;;3.25;;
72060;SDS011;59925;52.136;5.420;2022-10-22T02:16:45;7.50;;;3.35;;
72060;SDS011;59925;52.136;5.420;2022-10-22T02:19:28;10.27;;;3.90;;
72060;SDS011;59925;52.136;5.420;2022-10-22T02:22:02;10.63;;;3.27;;
72060;SDS011;59925;52.136;5.420;2022-10-22T02:24:29;6.20;;;2.75;;
72060;SDS011;59925;52.136;5.420;2022-10-22T02:32:32;6.47;;;3.22;;
72060;SDS011;59925;52.136;5.420;2022-10-22T02:35:04;6.57;;;3.60;;
72060;SDS011;59925;52.136;5.420;2022-10-22T02:37:31;10.80;;;3.47;;
72060;SDS011;59925;52.136;5.420;2022-10-22T02:39:57;9.00;;;3.50;;
72060;SDS011;59925;52.136;5.420;2022-10-22T02:42:24;8.15;;;3.30;;
72060;SDS011;59925;52.136;5.420;2022-10-22T02:44:51;9.32;;;3.85;;
72060;SDS011;59925;52.136;5.420;2022-10-22T02:47:18;9.47;;;3.43;;
72060;SDS011;59925;52.136;5.420;2022-10-22T02:49:44;6.32;;;2.90;;
72060;SDS011;59925;52.136;5.420;2022-10-22T02:52:10;8.30;;;3.67;;
72060;SDS011;59925;52.136;5.420;2022-10-22T02:54:37;9.25;;;3.90;;
72060;SDS011;59925;52.136;5.420;2022-10-22T02:57:03;7.78;;;3.03;;
72060;SDS011;59925;52.136;5.420;2022-10-22T02:59:29;8.77;;;3.23;;
72060;SDS011;59925;52.136;5.420;2022-10-22T03:01:56;7.88;;;3.55;;
72060;SDS011;59925;52.136;5.420;2022-10-22T03:04:22;13.18;;;3.40;;
72060;SDS011;59925;52.136;5.420;2022-10-22T03:06:48;10.45;;;3.35;;
72060;SDS011;59925;52.136;5.420;2022-10-22T03:09:15;5.50;;;3.53;;
72060;SDS011;59925;52.136;5.420;2022-10-22T03:11:47;11.07;;;3.43;;
72060;SDS011;59925;52.136;5.420;2022-10-22T03:14:14;8.52;;;3.28;;
72060;SDS011;59925;52.136;5.420;2022-10-22T03:16:40;10.35;;;3.30;;
72060;SDS011;59925;52.136;5.420;2022-10-22T03:19:06;8.10;;;3.20;;
72060;SDS011;59925;52.136;5.420;2022-10-22T03:21:37;6.78;;;2.95;;
72060;SDS011;59925;52.136;5.420;2022-10-22T03:24:30;6.10;;;2.60;;
72060;SDS011;59925;52.136;5.420;2022-10-22T03:27:00;10.05;;;3.10;;
72060;SDS011;59925;52.136;5.420;2022-10-22T03:29:27;7.22;;;2.80;;
72060;SDS011;59925;52.136;5.420;2022-10-22T03:31:54;6.55;;;2.88;;
72060;SDS011;59925;52.136;5.420;2022-10-22T03:34:20;7.28;;;3.08;;
72060;SDS011;59925;52.136;5.420;2022-10-22T03:36:47;8.70;;;3.13;;
72060;SDS011;59925;52.136;5.420;2022-10-22T03:39:14;7.10;;;3.28;;
72060;SDS011;59925;52.136;5.420;2022-10-22T03:41:43;9.35;;;3.40;;
72060;SDS011;59925;52.136;5.420;2022-10-22T03:44:10;11.35;;;3.13;;
72060;SDS011;59925;52.136;5.420;2022-10-22T03:46:37;7.85;;;3.08;;
72060;SDS011;59925;52.136;5.420;2022-10-22T03:49:04;8.83;;;3.00;;
72060;SDS011;59925;52.136;5.420;2022-10-22T03:51:30;7.45;;;2.83;;
72060;SDS011;59925;52.136;5.420;2022-10-22T03:53:56;5.88;;;2.78;;
72060;SDS011;59925;52.136;5.420;2022-10-22T03:56:23;5.38;;;2.72;;
72060;SDS011;59925;52.136;5.420;2022-10-22T03:58:49;8.45;;;3.70;;
72060;SDS011;59925;52.136;5.420;2022-10-22T04:01:16;7.53;;;3.10;;
72060;SDS011;59925;52.136;5.420;2022-10-22T04:03:42;11.00;;;3.60;;
72060;SDS011;59925;52.136;5.420;2022-10-22T04:06:10;9.38;;;3.42;;
72060;SDS011;59925;52.136;5.420;2022-10-22T04:08:38;7.60;;;3.30;;
72060;SDS011;59925;52.136;5.420;2022-10-22T04:11:06;6.53;;;3.00;;
72060;SDS011;59925;52.136;5.420;2022-10-22T04:13:33;6.50;;;2.97;;
72060;SDS011;59925;52.136;5.420;2022-10-22T04:16:09;8.98;;;3.10;;
72060;SDS011;59925;52.136;5.420;2022-10-22T04:18:39;8.65;;;3.10;;
72060;SDS011;59925;52.136;5.420;2022-10-22T04:21:07;12.15;;;3.75;;
72060;SDS011;59925;52.136;5.420;2022-10-22T04:23:34;7.07;;;3.00;;
72060;SDS011;59925;52.136;5.420;2022-10-22T04:26:03;4.80;;;3.00;;
72060;SDS011;59925;52.136;5.420;2022-10-22T04:28:31;7.78;;;3.42;;
72060;SDS011;59925;52.136;5.420;2022-10-22T04:30:57;11.35;;;3.65;;
72060;SDS011;59925;52.136;5.420;2022-10-22T04:33:23;9.15;;;3.30;;
72060;SDS011;59925;52.136;5.420;2022-10-22T04:35:50;7.82;;;3.55;;
72060;SDS011;59925;52.136;5.420;2022-10-22T04:38:16;7.77;;;3.40;;
72060;SDS011;59925;52.136;5.420;2022-10-22T04:40:43;8.70;;;3.72;;
72060;SDS011;59925;52.136;5.420;2022-10-22T04:43:09;9.52;;;3.55;;
72060;SDS011;59925;52.136;5.420;2022-10-22T04:45:35;9.48;;;3.78;;
72060;SDS011;59925;52.136;5.420;2022-10-22T04:48:02;12.23;;;3.80;;
72060;SDS011;59925;52.136;5.420;2022-10-22T04:50:28;4.90;;;3.27;;
72060;SDS011;59925;52.136;5.420;2022-10-22T04:52:55;7.25;;;3.50;;
72060;SDS011;59925;52.136;5.420;2022-10-22T04:55:22;10.50;;;3.88;;
72060;SDS011;59925;52.136;5.420;2022-10-22T04:57:48;8.63;;;3.05;;
72060;SDS011;59925;52.136;5.420;2022-10-22T05:00:15;11.73;;;3.92;;
72060;SDS011;59925;52.136;5.420;2022-10-22T05:02:41;8.73;;;3.37;;
72060;SDS011;59925;52.136;5.420;2022-10-22T05:05:09;12.38;;;3.67;;
72060;SDS011;59925;52.136;5.420;2022-10-22T05:07:37;12.13;;;3.85;;
72060;SDS011;59925;52.136;5.420;2022-10-22T05:10:03;6.82;;;3.28;;
72060;SDS011;59925;52.136;5.420;2022-10-22T05:12:30;7.78;;;3.58;;
72060;SDS011;59925;52.136;5.420;2022-10-22T05:14:56;11.57;;;3.60;;
72060;SDS011;59925;52.136;5.420;2022-10-22T05:17:23;7.50;;;3.83;;
72060;SDS011;59925;52.136;5.420;2022-10-22T05:19:49;9.88;;;3.83;;
72060;SDS011;59925;52.136;5.420;2022-10-22T05:22:15;8.80;;;3.50;;
72060;SDS011;59925;52.136;5.420;2022-10-22T05:24:42;10.32;;;3.55;;
72060;SDS011;59925;52.136;5.420;2022-10-22T05:27:08;9.57;;;3.23;;
72060;SDS011;59925;52.136;5.420;2022-10-22T05:29:35;13.52;;;4.28;;
72060;SDS011;59925;52.136;5.420;2022-10-22T05:32:01;7.18;;;3.40;;
72060;SDS011;59925;52.136;5.420;2022-10-22T05:34:28;7.93;;;4.45;;
72060;SDS011;59925;52.136;5.420;2022-10-22T05:36:54;8.18;;;3.20;;
72060;SDS011;59925;52.136;5.420;2022-10-22T05:39:20;7.17;;;3.10;;
72060;SDS011;59925;52.136;5.420;2022-10-22T05:41:47;10.18;;;3.70;;
72060;SDS011;59925;52.136;5.420;2022-10-22T05:44:13;5.78;;;3.05;;
72060;SDS011;59925;52.136;5.420;2022-10-22T05:46:40;8.10;;;3.30;;
72060;SDS011;59925;52.136;5.420;2022-10-22T05:49:11;7.22;;;3.03;;
72060;SDS011;59925;52.136;5.420;2022-10-22T05:51:40;9.13;;;3.07;;
72060;SDS011;59925;52.136;5.420;2022-10-22T05:54:07;7.65;;;3.63;;
72060;SDS011;59925;52.136;5.420;2022-10-22T05:56:34;7.68;;;3.15;;
72060;SDS011;59925;52.136;5.420;2022-10-22T05:59:01;10.93;;;2.92;;
72060;SDS011;59925;52.136;5.420;2022-10-22T06:01:33;9.07;;;3.20;;
72060;SDS011;59925;52.136;5.420;2022-10-22T06:04:01;10.10;;;3.30;;
72060;SDS011;59925;52.136;5.420;2022-10-22T06:06:37;8.80;;;3.20;;
72060;SDS011;59925;52.136;5.420;2022-10-22T06:11:36;8.73;;;3.25;;
72060;SDS011;59925;52.136;5.420;2022-10-22T06:14:03;9.52;;;3.70;;
72060;SDS011;59925;52.136;5.420;2022-10-22T06:16:30;11.90;;;3.50;;
72060;SDS011;59925;52.136;5.420;2022-10-22T06:19:00;9.15;;;3.10;;
72060;SDS011;59925;52.136;5.420;2022-10-22T06:21:27;7.90;;;2.85;;
72060;SDS011;59925;52.136;5.420;2022-10-22T06:23:55;10.55;;;2.85;;
72060;SDS011;59925;52.136;5.420;2022-10-22T06:26:22;8.13;;;3.00;;
72060;SDS011;59925;52.136;5.420;2022-10-22T06:28:49;7.20;;;3.07;;
72060;SDS011;59925;52.136;5.420;2022-10-22T06:31:15;5.50;;;3.05;;
72060;SDS011;59925;52.136;5.420;2022-10-22T06:33:42;8.98;;;3.45;;
72060;SDS011;59925;52.136;5.420;2022-10-22T06:36:09;10.23;;;3.30;;
72060;SDS011;59925;52.136;5.420;2022-10-22T06:38:37;12.15;;;3.38;;
72060;SDS011;59925;52.136;5.420;2022-10-22T06:41:06;7.90;;;2.67;;
72060;SDS011;59925;52.136;5.420;2022-10-22T06:43:37;9.15;;;3.30;;
72060;SDS011;59925;52.136;5.420;2022-10-22T06:46:04;9.32;;;3.40;;
72060;SDS011;59925;52.136;5.420;2022-10-22T06:48:35;8.38;;;3.15;;
72060;SDS011;59925;52.136;5.420;2022-10-22T06:51:03;9.93;;;3.08;;
72060;SDS011;59925;52.136;5.420;2022-10-22T06:53:31;9.10;;;2.90;;
72060;SDS011;59925;52.136;5.420;2022-10-22T06:55:58;7.20;;;2.70;;
72060;SDS011;59925;52.136;5.420;2022-10-22T06:58:24;7.55;;;3.00;;
72060;SDS011;59925;52.136;5.420;2022-10-22T07:00:59;7.22;;;3.10;;
72060;SDS011;59925;52.136;5.420;2022-10-22T07:03:27;8.18;;;2.95;;
72060;SDS011;59925;52.136;5.420;2022-10-22T07:05:53;8.07;;;3.80;;
72060;SDS011;59925;52.136;5.420;2022-10-22T07:08:19;6.57;;;3.05;;
72060;SDS011;59925;52.136;5.420;2022-10-22T07:10:46;6.15;;;2.92;;
72060;SDS011;59925;52.136;5.420;2022-10-22T07:13:12;8.52;;;2.60;;
72060;SDS011;59925;52.136;5.420;2022-10-22T07:15:38;7.82;;;3.03;;
72060;SDS011;59925;52.136;5.420;2022-10-22T07:18:05;7.87;;;2.90;;
72060;SDS011;59925;52.136;5.420;2022-10-22T07:20:31;6.25;;;2.53;;
72060;SDS011;59925;52.136;5.420;2022-10-22T07:22:57;9.07;;;3.00;;
72060;SDS011;59925;52.136;5.420;2022-10-22T07:25:24;7.53;;;2.47;;
72060;SDS011;59925;52.136;5.420;2022-10-22T07:27:50;3.60;;;2.40;;
72060;SDS011;59925;52.136;5.420;2022-10-22T07:30:17;10.27;;;2.60;;
72060;SDS011;59925;52.136;5.420;2022-10-22T07:32:43;7.20;;;2.28;;
72060;SDS011;59925;52.136;5.420;2022-10-22T07:35:10;7.03;;;2.58;;
72060;SDS011;59925;52.136;5.420;2022-10-22T07:37:36;8.93;;;2.13;;
72060;SDS011;59925;52.136;5.420;2022-10-22T07:40:03;8.05;;;2.80;;
72060;SDS011;59925;52.136;5.420;2022-10-22T07:42:30;5.90;;;2.17;;
72060;SDS011;59925;52.136;5.420;2022-10-22T07:44:56;9.35;;;2.08;;
72060;SDS011;59925;52.136;5.420;2022-10-22T07:47:22;8.52;;;2.80;;
72060;SDS011;59925;52.136;5.420;2022-10-22T07:49:49;10.68;;;2.00;;
72060;SDS011;59925;52.136;5.420;2022-10-22T07:52:15;7.18;;;2.50;;
72060;SDS011;59925;52.136;5.420;2022-10-22T07:54:41;4.77;;;1.70;;
72060;SDS011;59925;52.136;5.420;2022-10-22T07:57:08;6.80;;;1.90;;
72060;SDS011;59925;52.136;5.420;2022-10-22T07:59:34;6.60;;;2.10;;
72060;SDS011;59925;52.136;5.420;2022-10-22T08:02:00;6.22;;;1.77;;
72060;SDS011;59925;52.136;5.420;2022-10-22T08:04:27;10.75;;;1.92;;
72060;SDS011;59925;52.136;5.420;2022-10-22T08:06:53;5.67;;;2.07;;
72060;SDS011;59925;52.136;5.420;2022-10-22T08:09:19;7.55;;;1.52;;
72060;SDS011;59925;52.136;5.420;2022-10-22T08:11:46;8.82;;;1.80;;
72060;SDS011;59925;52.136;5.420;2022-10-22T08:14:12;10.73;;;2.05;;
72060;SDS011;59925;52.136;5.420;2022-10-22T08:16:39;11.43;;;1.70;;
72060;SDS011;59925;52.136;5.420;2022-10-22T08:19:05;8.10;;;1.80;;
72060;SDS011;59925;52.136;5.420;2022-10-22T08:21:31;10.95;;;1.98;;
72060;SDS011;59925;52.136;5.420;2022-10-22T08:23:58;8.25;;;2.10;;
72060;SDS011;59925;52.136;5.420;2022-10-22T08:26:24;8.25;;;1.42;;
72060;SDS011;59925;52.136;5.420;2022-10-22T08:28:50;6.30;;;1.42;;
72060;SDS011;59925;52.136;5.420;2022-10-22T08:31:17;5.90;;;1.40;;
72060;SDS011;59925;52.136;5.420;2022-10-22T08:33:43;8.60;;;1.77;;
72060;SDS011;59925;52.136;5.420;2022-10-22T08:36:09;5.25;;;1.33;;
72060;SDS011;59925;52.136;5.420;2022-10-22T08:38:36;8.63;;;1.35;;
72060;SDS011;59925;52.136;5.420;2022-10-22T08:49:33;5.95;;;1.65;;
72060;SDS011;59925;52.136;5.420;2022-10-22T08:52:08;9.05;;;1.50;;
72060;SDS011;59925;52.136;5.420;2022-10-22T08:57:34;6.07;;;1.30;;
72060;SDS011;59925;52.136;5.420;2022-10-22T09:05:55;8.63;;;1.35;;
72060;SDS011;59925;52.136;5.420;2022-10-22T09:08:21;7.30;;;1.38;;
72060;SDS011;59925;52.136;5.420;2022-10-22T09:10:49;6.00;;;1.50;;
72060;SDS011;59925;52.136;5.420;2022-10-22T09:13:20;6.82;;;1.30;;
72060;SDS011;59925;52.136;5.420;2022-10-22T09:15:50;4.57;;;1.27;;
72060;SDS011;59925;52.136;5.420;2022-10-22T09:20:58;6.18;;;1.30;;
72060;SDS011;59925;52.136;5.420;2022-10-22T09:23:53;5.33;;;1.10;;
72060;SDS011;59925;52.136;5.420;2022-10-22T09:26:33;8.55;;;1.73;;
72060;SDS011;59925;52.136;5.420;2022-10-22T09:29:03;6.57;;;1.65;;
72060;SDS011;59925;52.136;5.420;2022-10-22T09:31:30;4.95;;;1.10;;
72060;SDS011;59925;52.136;5.420;2022-10-22T09:33:58;3.83;;;1.40;;
72060;SDS011;59925;52.136;5.420;2022-10-22T09:36:30;5.13;;;1.37;;
72060;SDS011;59925;52.136;5.420;2022-10-22T09:38:57;6.07;;;1.48;;
72060;SDS011;59925;52.136;5.420;2022-10-22T09:41:26;5.55;;;1.30;;
72060;SDS011;59925;52.136;5.420;2022-10-22T09:43:57;6.47;;;1.25;;
72060;SDS011;59925;52.136;5.420;2022-10-22T09:46:27;4.93;;;1.02;;
72060;SDS011;59925;52.136;5.420;2022-10-22T09:54:21;7.70;;;1.30;;
72060;SDS011;59925;52.136;5.420;2022-10-22T09:56:56;8.00;;;1.50;;
72060;SDS011;59925;52.136;5.420;2022-10-22T09:59:25;4.60;;;1.38;;
72060;SDS011;59925;52.136;5.420;2022-10-22T10:01:58;8.50;;;1.30;;
72060;SDS011;59925;52.136;5.420;2022-10-22T10:04:52;7.35;;;1.27;;
72060;SDS011;59925;52.136;5.420;2022-10-22T10:07:22;5.00;;;1.35;;
72060;SDS011;59925;52.136;5.420;2022-10-22T10:09:52;6.30;;;0.90;;
72060;SDS011;59925;52.136;5.420;2022-10-22T10:12:21;9.10;;;1.10;;
72060;SDS011;59925;52.136;5.420;2022-10-22T10:15:22;7.43;;;1.00;;
72060;SDS011;59925;52.136;5.420;2022-10-22T10:21:13;6.38;;;0.88;;
72060;SDS011;59925;52.136;5.420;2022-10-22T10:23:52;5.10;;;1.05;;
72060;SDS011;59925;52.136;5.420;2022-10-22T10:26:50;7.43;;;1.00;;
72060;SDS011;59925;52.136;5.420;2022-10-22T10:29:31;6.63;;;1.00;;
72060;SDS011;59925;52.136;5.420;2022-10-22T10:32:26;5.10;;;0.80;;
72060;SDS011;59925;52.136;5.420;2022-10-22T10:46:22;5.22;;;1.00;;
72060;SDS011;59925;52.136;5.420;2022-10-22T10:52:12;9.20;;;0.93;;
72060;SDS011;59925;52.136;5.420;2022-10-22T10:55:06;5.97;;;0.70;;
72060;SDS011;59925;52.136;5.420;2022-10-22T11:00:58;4.95;;;0.90;;
72060;SDS011;59925;52.136;5.420;2022-10-22T11:06:22;6.70;;;1.95;;
72060;SDS011;59925;52.136;5.420;2022-10-22T11:11:21;6.13;;;1.10;;
72060;SDS011;59925;52.136;5.420;2022-10-22T11:14:16;6.47;;;1.00;;
72060;SDS011;59925;52.136;5.420;2022-10-22T11:16:59;6.07;;;0.82;;
72060;SDS011;59925;52.136;5.420;2022-10-22T11:19:42;6.93;;;1.70;;
72060;SDS011;59925;52.136;5.420;2022-10-22T11:22:21;6.07;;;1.00;;
72060;SDS011;59925;52.136;5.420;2022-10-22T11:27:40;4.45;;;0.75;;
72060;SDS011;59925;52.136;5.420;2022-10-22T11:30:11;6.80;;;0.82;;
72060;SDS011;59925;52.136;5.420;2022-10-22T11:32:38;6.80;;;0.82;;
72060;SDS011;59925;52.136;5.420;2022-10-22T11:35:10;8.82;;;0.73;;
72060;SDS011;59925;52.136;5.420;2022-10-22T11:37:41;6.47;;;2.10;;
72060;SDS011;59925;52.136;5.420;2022-10-22T11:40:14;7.63;;;1.15;;
72060;SDS011;59925;52.136;5.420;2022-10-22T11:42:47;8.00;;;1.33;;
72060;SDS011;59925;52.136;5.420;2022-10-22T11:47:56;6.97;;;1.13;;
72060;SDS011;59925;52.136;5.420;2022-10-22T11:50:46;7.10;;;0.97;;
72060;SDS011;59925;52.136;5.420;2022-10-22T11:53:37;9.00;;;1.33;;
72060;SDS011;59925;52.136;5.420;2022-10-22T12:09:11;6.22;;;0.98;;
72060;SDS011;59925;52.136;5.420;2022-10-22T12:11:39;7.63;;;1.17;;
72060;SDS011;59925;52.136;5.420;2022-10-22T12:16:55;6.27;;;0.90;;
72060;SDS011;59925;52.136;5.420;2022-10-22T12:19:25;6.22;;;0.77;;
72060;SDS011;59925;52.136;5.420;2022-10-22T12:24:47;10.18;;;1.10;;
72060;SDS011;59925;52.136;5.420;2022-10-22T12:29:48;8.07;;;1.40;;
72060;SDS011;59925;52.136;5.420;2022-10-22T12:32:19;8.55;;;1.20;;
72060;SDS011;59925;52.136;5.420;2022-10-22T12:34:46;7.20;;;1.38;;
72060;SDS011;59925;52.136;5.420;2022-10-22T12:37:15;9.77;;;1.42;;
72060;SDS011;59925;52.136;5.420;2022-10-22T12:39:43;9.20;;;1.30;;
72060;SDS011;59925;52.136;5.420;2022-10-22T12:42:14;6.63;;;0.80;;
72060;SDS011;59925;52.136;5.420;2022-10-22T12:44:43;9.98;;;2.15;;
72060;SDS011;59925;52.136;5.420;2022-10-22T12:47:14;7.80;;;1.45;;
72060;SDS011;59925;52.136;5.420;2022-10-22T12:49:43;7.45;;;1.10;;
72060;SDS011;59925;52.136;5.420;2022-10-22T12:52:14;10.18;;;1.02;;
72060;SDS011;59925;52.136;5.420;2022-10-22T12:54:44;8.47;;;1.50;;
72060;SDS011;59925;52.136;5.420;2022-10-22T12:57:13;12.63;;;1.10;;
72060;SDS011;59925;52.136;5.420;2022-10-22T12:59:42;7.78;;;1.42;;
72060;SDS011;59925;52.136;5.420;2022-10-22T13:02:16;7.00;;;1.05;;
72060;SDS011;59925;52.136;5.420;2022-10-22T13:08:07;8.73;;;1.13;;
72060;SDS011;59925;52.136;5.420;2022-10-22T13:10:36;7.35;;;1.10;;
72060;SDS011;59925;52.136;5.420;2022-10-22T13:13:05;6.10;;;1.23;;
72060;SDS011;59925;52.136;5.420;2022-10-22T13:15:34;8.68;;;1.20;;
72060;SDS011;59925;52.136;5.420;2022-10-22T13:18:13;7.15;;;1.35;;
72060;SDS011;59925;52.136;5.420;2022-10-22T13:23:51;11.10;;;1.58;;
72060;SDS011;59925;52.136;5.420;2022-10-22T13:26:19;9.15;;;1.60;;
72060;SDS011;59925;52.136;5.420;2022-10-22T13:28:53;10.93;;;1.90;;
72060;SDS011;59925;52.136;5.420;2022-10-22T13:31:25;7.75;;;1.40;;
72060;SDS011;59925;52.136;5.420;2022-10-22T13:33:55;8.10;;;1.30;;
72060;SDS011;59925;52.136;5.420;2022-10-22T13:36:23;9.35;;;1.65;;
72060;SDS011;59925;52.136;5.420;2022-10-22T13:38:50;10.20;;;1.83;;
72060;SDS011;59925;52.136;5.420;2022-10-22T13:41:23;10.50;;;1.83;;
72060;SDS011;59925;52.136;5.420;2022-10-22T13:43:52;9.88;;;1.80;;
72060;SDS011;59925;52.136;5.420;2022-10-22T13:46:20;6.70;;;1.30;;
72060;SDS011;59925;52.136;5.420;2022-10-22T13:48:48;10.30;;;1.70;;
72060;SDS011;59925;52.136;5.420;2022-10-22T13:51:18;7.47;;;1.50;;
72060;SDS011;59925;52.136;5.420;2022-10-22T13:53:47;14.93;;;1.70;;
72060;SDS011;59925;52.136;5.420;2022-10-22T13:56:16;4.78;;;1.20;;
72060;SDS011;59925;52.136;5.420;2022-10-22T13:58:43;11.40;;;1.90;;
72060;SDS011;59925;52.136;5.420;2022-10-22T14:03:44;10.25;;;2.20;;
72060;SDS011;59925;52.136;5.420;2022-10-22T14:06:12;5.13;;;1.27;;
72060;SDS011;59925;52.136;5.420;2022-10-22T14:08:40;10.98;;;1.85;;
72060;SDS011;59925;52.136;5.420;2022-10-22T14:11:09;13.13;;;1.87;;
72060;SDS011;59925;52.136;5.420;2022-10-22T14:13:37;7.65;;;1.65;;
72060;SDS011;59925;52.136;5.420;2022-10-22T14:16:04;9.07;;;1.80;;
72060;SDS011;59925;52.136;5.420;2022-10-22T14:18:33;12.63;;;1.85;;
72060;SDS011;59925;52.136;5.420;2022-10-22T14:21:01;7.75;;;1.45;;
72060;SDS011;59925;52.136;5.420;2022-10-22T14:23:32;9.17;;;1.80;;
72060;SDS011;59925;52.136;5.420;2022-10-22T14:26:01;8.70;;;1.67;;
72060;SDS011;59925;52.136;5.420;2022-10-22T14:28:29;9.65;;;1.75;;
72060;SDS011;59925;52.136;5.420;2022-10-22T14:31:02;6.55;;;1.48;;
72060;SDS011;59925;52.136;5.420;2022-10-22T14:33:29;8.13;;;1.70;;
72060;SDS011;59925;52.136;5.420;2022-10-22T14:35:59;10.40;;;1.90;;
72060;SDS011;59925;52.136;5.420;2022-10-22T14:38:25;9.82;;;1.48;;
72060;SDS011;59925;52.136;5.420;2022-10-22T14:40:52;8.63;;;1.35;;
72060;SDS011;59925;52.136;5.420;2022-10-22T14:43:26;10.50;;;1.65;;
72060;SDS011;59925;52.136;5.420;2022-10-22T14:45:55;9.07;;;1.58;;
72060;SDS011;59925;52.136;5.420;2022-10-22T14:48:22;13.83;;;2.27;;
72060;SDS011;59925;52.136;5.420;2022-10-22T14:50:49;7.60;;;1.60;;
72060;SDS011;59925;52.136;5.420;2022-10-22T14:53:16;9.15;;;1.35;;
72060;SDS011;59925;52.136;5.420;2022-10-22T14:55:42;9.45;;;1.60;;
72060;SDS011;59925;52.136;5.420;2022-10-22T14:58:10;13.55;;;2.08;;
72060;SDS011;59925;52.136;5.420;2022-10-22T15:00:39;6.63;;;1.73;;
72060;SDS011;59925;52.136;5.420;2022-10-22T15:03:07;8.23;;;1.30;;
72060;SDS011;59925;52.136;5.420;2022-10-22T15:05:33;7.45;;;1.35;;
72060;SDS011;59925;52.136;5.420;2022-10-22T15:08:01;11.45;;;1.80;;
72060;SDS011;59925;52.136;5.420;2022-10-22T15:10:27;6.68;;;1.50;;
72060;SDS011;59925;52.136;5.420;2022-10-22T15:12:54;8.33;;;1.60;;
72060;SDS011;59925;52.136;5.420;2022-10-22T15:15:20;8.27;;;1.70;;
72060;SDS011;59925;52.136;5.420;2022-10-22T15:17:48;7.45;;;1.55;;
72060;SDS011;59925;52.136;5.420;2022-10-22T15:20:15;7.85;;;1.80;;
72060;SDS011;59925;52.136;5.420;2022-10-22T15:22:41;8.85;;;1.65;;
72060;SDS011;59925;52.136;5.420;2022-10-22T15:25:08;6.80;;;1.40;;
72060;SDS011;59925;52.136;5.420;2022-10-22T15:27:36;4.43;;;1.15;;
72060;SDS011;59925;52.136;5.420;2022-10-22T15:30:02;9.82;;;1.40;;
72060;SDS011;59925;52.136;5.420;2022-10-22T15:32:30;5.43;;;1.10;;
72060;SDS011;59925;52.136;5.420;2022-10-22T15:34:58;7.35;;;1.27;;
72060;SDS011;59925;52.136;5.420;2022-10-22T15:37:26;8.17;;;1.27;;
72060;SDS011;59925;52.136;5.420;2022-10-22T15:39:52;11.93;;;1.95;;
72060;SDS011;59925;52.136;5.420;2022-10-22T15:42:19;10.25;;;1.27;;
72060;SDS011;59925;52.136;5.420;2022-10-22T15:44:45;9.02;;;1.00;;
72060;SDS011;59925;52.136;5.420;2022-10-22T15:47:11;8.63;;;1.70;;
72060;SDS011;59925;52.136;5.420;2022-10-22T15:49:38;8.13;;;2.03;;
72060;SDS011;59925;52.136;5.420;2022-10-22T15:52:06;18.63;;;2.75;;
72060;SDS011;59925;52.136;5.420;2022-10-22T15:54:34;10.57;;;1.83;;
72060;SDS011;59925;52.136;5.420;2022-10-22T15:57:00;12.20;;;1.77;;
72060;SDS011;59925;52.136;5.420;2022-10-22T15:59:28;9.00;;;1.40;;
72060;SDS011;59925;52.136;5.420;2022-10-22T16:01:55;8.30;;;1.10;;
72060;SDS011;59925;52.136;5.420;2022-10-22T16:04:22;9.43;;;1.52;;
72060;SDS011;59925;52.136;5.420;2022-10-22T16:06:49;9.13;;;1.73;;
72060;SDS011;59925;52.136;5.420;2022-10-22T16:09:21;9.20;;;1.45;;
72060;SDS011;59925;52.136;5.420;2022-10-22T16:11:49;9.40;;;1.25;;
72060;SDS011;59925;52.136;5.420;2022-10-22T16:14:21;6.97;;;1.30;;
72060;SDS011;59925;52.136;5.420;2022-10-22T16:16:50;7.40;;;1.45;;
72060;SDS011;59925;52.136;5.420;2022-10-22T16:19:19;7.32;;;1.38;;
72060;SDS011;59925;52.136;5.420;2022-10-22T16:21:47;10.32;;;1.20;;
72060;SDS011;59925;52.136;5.420;2022-10-22T16:24:19;8.40;;;1.48;;
72060;SDS011;59925;52.136;5.420;2022-10-22T16:26:46;9.43;;;1.57;;
72060;SDS011;59925;52.136;5.420;2022-10-22T16:29:13;5.30;;;1.42;;
72060;SDS011;59925;52.136;5.420;2022-10-22T16:31:39;5.13;;;1.52;;
72060;SDS011;59925;52.136;5.420;2022-10-22T16:34:08;12.00;;;2.10;;
72060;SDS011;59925;52.136;5.420;2022-10-22T16:36:34;7.10;;;1.45;;
72060;SDS011;59925;52.136;5.420;2022-10-22T16:39:02;9.63;;;3.70;;
72060;SDS011;59925;52.136;5.420;2022-10-22T16:41:29;10.48;;;1.92;;
72060;SDS011;59925;52.136;5.420;2022-10-22T16:44:00;7.95;;;1.60;;
72060;SDS011;59925;52.136;5.420;2022-10-22T16:46:29;5.35;;;1.73;;
72060;SDS011;59925;52.136;5.420;2022-10-22T16:48:56;7.18;;;1.88;;
72060;SDS011;59925;52.136;5.420;2022-10-22T16:51:23;8.87;;;1.90;;
72060;SDS011;59925;52.136;5.420;2022-10-22T16:53:51;8.10;;;1.88;;